Time,TemperatureF,DewpointF,PressureIn,WindDirection,WindDirectionDegrees,WindSpeedMPH,WindSpeedGustMPH,Humidity,HourlyPrecipIn,Conditions,Clouds,dailyrainin,SoftwareType,DateUTC
2013-03-01 00:02:00,19.0,3.0,30.33,SSE,161,0.0,1.0,49,0.00,,,0.00,,2013-03-01 06:02:00,
2013-03-01 00:11:00,19.0,3.0,30.33,SSE,161,0.0,1.0,49,0.00,,,0.00,,2013-03-01 06:11:00,
2013-03-01 00:22:00,19.0,3.0,30.33,SSE,161,0.0,1.0,49,0.00,,,0.00,,2013-03-01 06:22:00,
2013-03-01 00:32:00,19.0,3.0,30.33,SSE,161,0.0,1.0,49,0.00,,,0.00,,2013-03-01 06:32:00,
2013-03-01 01:22:00,33.0,3.0,30.22,SSW,208,2.0,8.0,28,0.00,,,0.00,,2013-03-01 07:22:00,
2013-03-01 01:32:00,33.0,3.0,30.22,SSW,208,2.0,8.0,28,0.00,,,0.00,,2013-03-01 07:32:00,
2013-03-01 01:42:00,33.0,3.0,30.22,SSW,208,2.0,8.0,28,0.00,,,0.00,,2013-03-01 07:42:00,
2013-03-01 01:52:00,36.0,3.0,30.17,SW,216,4.0,8.0,24,0.00,,,0.00,,2013-03-01 07:52:00,
2013-03-01 02:02:00,36.0,3.0,30.17,SW,216,4.0,8.0,24,0.00,,,0.00,,2013-03-01 08:02:00,
2013-03-01 02:12:00,36.0,3.0,30.17,SW,216,4.0,8.0,24,0.00,,,0.00,,2013-03-01 08:12:00,
2013-03-01 02:22:00,31.0,2.0,30.21,WSW,240,1.0,8.0,28,0.00,,,0.00,,2013-03-01 08:22:00,
2013-03-01 02:32:00,31.0,2.0,30.21,WSW,240,1.0,8.0,28,0.00,,,0.00,,2013-03-01 08:32:00,
2013-03-01 02:43:00,31.0,2.0,30.21,WSW,240,1.0,8.0,28,0.00,,,0.00,,2013-03-01 08:43:00,
2013-03-01 02:53:00,28.0,1.0,30.22,WSW,239,0.0,5.0,31,0.00,,,0.00,,2013-03-01 08:53:00,
2013-03-01 03:02:00,28.0,1.0,30.22,WSW,239,0.0,5.0,31,0.00,,,0.00,,2013-03-01 09:02:00,
2013-03-01 03:12:00,28.0,1.0,30.22,WSW,239,0.0,5.0,31,0.00,,,0.00,,2013-03-01 09:12:00,
2013-03-01 03:22:00,28.0,1.0,30.22,WSW,239,0.0,5.0,31,0.00,,,0.00,,2013-03-01 09:22:00,
2013-03-01 03:32:00,28.0,1.0,30.22,WSW,239,0.0,5.0,31,0.00,,,0.00,,2013-03-01 09:32:00,
2013-03-01 03:52:00,30.0,-1.0,30.20,SW,234,1.0,6.0,26,0.00,,,0.00,,2013-03-01 09:52:00,
2013-03-01 04:02:00,30.0,-1.0,30.20,SW,234,1.0,6.0,26,0.00,,,0.00,,2013-03-01 10:02:00,
2013-03-01 04:11:00,30.0,-1.0,30.20,SW,234,1.0,6.0,26,0.00,,,0.00,,2013-03-01 10:11:00,
2013-03-01 04:22:00,37.0,0.0,30.16,WSW,247,5.0,12.0,20,0.00,,,0.00,,2013-03-01 10:22:00,
2013-03-01 04:32:00,37.0,0.0,30.16,WSW,247,5.0,12.0,20,0.00,,,0.00,,2013-03-01 10:32:00,
2013-03-01 04:42:00,37.0,0.0,30.16,WSW,247,5.0,12.0,20,0.00,,,0.00,,2013-03-01 10:42:00,
2013-03-01 04:53:00,38.0,1.0,30.16,SW,217,5.0,13.0,20,0.00,,,0.00,,2013-03-01 10:53:00,
2013-03-01 05:01:00,38.0,1.0,30.16,SW,217,5.0,13.0,20,0.00,,,0.00,,2013-03-01 11:01:00,
2013-03-01 05:11:00,38.0,1.0,30.16,SW,217,5.0,13.0,20,0.00,,,0.00,,2013-03-01 11:11:00,
2013-03-01 05:22:00,38.0,-1.0,30.16,WSW,239,3.0,13.0,19,0.00,,,0.00,,2013-03-01 11:22:00,
2013-03-01 05:32:00,38.0,-1.0,30.16,WSW,239,3.0,13.0,19,0.00,,,0.00,,2013-03-01 11:32:00,
2013-03-01 05:42:00,38.0,-1.0,30.16,WSW,239,3.0,13.0,19,0.00,,,0.00,,2013-03-01 11:42:00,
2013-03-01 05:52:00,38.0,-1.0,30.19,SW,227,5.0,12.0,19,0.00,,,0.00,,2013-03-01 11:52:00,
2013-03-01 06:01:00,38.0,-1.0,30.19,SW,227,5.0,12.0,19,0.00,,,0.00,,2013-03-01 12:01:00,
2013-03-01 06:11:00,38.0,-1.0,30.19,SW,227,5.0,12.0,19,0.00,,,0.00,,2013-03-01 12:11:00,
2013-03-01 06:21:00,38.0,-1.0,30.19,SSW,209,5.0,12.0,19,0.00,,,0.00,,2013-03-01 12:21:00,
2013-03-01 06:32:00,38.0,-1.0,30.19,SSW,209,5.0,12.0,19,0.00,,,0.00,,2013-03-01 12:32:00,
2013-03-01 06:42:00,38.0,-1.0,30.19,SSW,209,5.0,12.0,19,0.00,,,0.00,,2013-03-01 12:42:00,
2013-03-01 06:52:00,39.0,0.0,30.23,South,188,3.0,12.0,19,0.00,,,0.00,,2013-03-01 12:52:00,
2013-03-01 07:01:00,39.0,0.0,30.23,South,188,3.0,12.0,19,0.00,,,0.00,,2013-03-01 13:01:00,
2013-03-01 07:11:00,39.0,0.0,30.23,South,188,3.0,12.0,19,0.00,,,0.00,,2013-03-01 13:11:00,
2013-03-01 07:21:00,40.0,0.0,30.22,NNW,337,3.0,17.0,18,0.00,,,0.00,,2013-03-01 13:21:00,
2013-03-01 07:32:00,40.0,0.0,30.22,NNW,337,3.0,17.0,18,0.00,,,0.00,,2013-03-01 13:32:00,
2013-03-01 07:42:00,40.0,0.0,30.22,NNW,337,3.0,17.0,18,0.00,,,0.00,,2013-03-01 13:42:00,
2013-03-01 07:52:00,39.0,0.0,30.31,SSW,199,6.0,17.0,19,0.00,,,0.00,,2013-03-01 13:52:00,
2013-03-01 08:01:00,39.0,0.0,30.31,SSW,199,6.0,17.0,19,0.00,,,0.00,,2013-03-01 14:01:00,
2013-03-01 08:11:00,39.0,0.0,30.31,SSW,199,6.0,17.0,19,0.00,,,0.00,,2013-03-01 14:11:00,
2013-03-01 08:21:00,39.0,0.0,30.32,West,280,5.0,14.0,19,0.00,,,0.00,,2013-03-01 14:21:00,
2013-03-01 08:32:00,39.0,0.0,30.32,West,280,5.0,14.0,19,0.00,,,0.00,,2013-03-01 14:32:00,
2013-03-01 08:42:00,39.0,0.0,30.32,West,280,5.0,14.0,19,0.00,,,0.00,,2013-03-01 14:42:00,
2013-03-01 08:52:00,42.0,0.0,30.33,West,277,3.0,12.0,17,0.00,,,0.00,,2013-03-01 14:52:00,
2013-03-01 09:01:00,42.0,0.0,30.33,West,277,3.0,12.0,17,0.00,,,0.00,,2013-03-01 15:01:00,
2013-03-01 09:11:00,43.0,1.0,30.34,NW,306,2.0,12.0,17,0.00,,,0.00,,2013-03-01 15:11:00,
2013-03-01 09:21:00,43.0,1.0,30.34,NW,306,2.0,12.0,17,0.00,,,0.00,,2013-03-01 15:21:00,
2013-03-01 09:31:00,43.0,1.0,30.34,NW,306,2.0,12.0,17,0.00,,,0.00,,2013-03-01 15:31:00,
2013-03-01 09:42:00,43.0,1.0,30.34,NW,306,2.0,12.0,17,0.00,,,0.00,,2013-03-01 15:42:00,
2013-03-01 09:52:00,44.0,2.0,30.35,WNW,301,4.0,20.0,17,0.00,,,0.00,,2013-03-01 15:52:00,
2013-03-01 10:01:00,44.0,2.0,30.35,WNW,301,4.0,20.0,17,0.00,,,0.00,,2013-03-01 16:01:00,
2013-03-01 10:11:00,44.0,2.0,30.35,WNW,301,4.0,20.0,17,0.00,,,0.00,,2013-03-01 16:11:00,
2013-03-01 10:21:00,46.0,1.0,30.33,SSW,192,4.0,13.0,15,0.00,,,0.00,,2013-03-01 16:21:00,
2013-03-01 10:32:00,46.0,1.0,30.33,SSW,192,4.0,13.0,15,0.00,,,0.00,,2013-03-01 16:32:00,
2013-03-01 10:42:00,46.0,1.0,30.33,SSW,192,4.0,13.0,15,0.00,,,0.00,,2013-03-01 16:42:00,
2013-03-01 10:52:00,48.0,3.0,30.36,East,99,3.0,20.0,15,0.00,,,0.00,,2013-03-01 16:52:00,
2013-03-01 11:01:00,48.0,3.0,30.36,East,99,3.0,20.0,15,0.00,,,0.00,,2013-03-01 17:01:00,
2013-03-01 11:11:00,48.0,3.0,30.36,East,99,3.0,20.0,15,0.00,,,0.00,,2013-03-01 17:11:00,
2013-03-01 11:21:00,47.0,3.0,30.38,SSW,209,7.0,25.0,16,0.00,,,0.00,,2013-03-01 17:21:00,
2013-03-01 11:32:00,47.0,3.0,30.38,SSW,209,7.0,25.0,16,0.00,,,0.00,,2013-03-01 17:32:00,
2013-03-01 11:42:00,47.0,3.0,30.38,SSW,209,7.0,25.0,16,0.00,,,0.00,,2013-03-01 17:42:00,
2013-03-01 11:52:00,50.0,4.0,30.38,ENE,72,5.0,16.0,15,0.00,,,0.00,,2013-03-01 17:52:00,
2013-03-01 12:01:00,50.0,4.0,30.38,ENE,72,5.0,16.0,15,0.00,,,0.00,,2013-03-01 18:01:00,
2013-03-01 12:12:00,50.0,4.0,30.38,ENE,72,5.0,16.0,15,0.00,,,0.00,,2013-03-01 18:12:00,
2013-03-01 12:22:00,49.0,5.0,30.40,SW,236,6.0,21.0,16,0.00,,,0.00,,2013-03-01 18:22:00,
2013-03-01 12:31:00,49.0,5.0,30.40,SW,236,6.0,21.0,16,0.00,,,0.00,,2013-03-01 18:31:00,
2013-03-01 12:42:00,49.0,5.0,30.40,SW,236,6.0,21.0,16,0.00,,,0.00,,2013-03-01 18:42:00,
2013-03-01 12:52:00,52.0,6.0,30.27,North,11,5.0,18.0,15,0.00,,,0.00,,2013-03-01 18:52:00,
2013-03-01 13:01:00,52.0,6.0,30.27,North,11,5.0,18.0,15,0.00,,,0.00,,2013-03-01 19:01:00,
2013-03-01 13:11:00,52.0,6.0,30.27,North,11,5.0,18.0,15,0.00,,,0.00,,2013-03-01 19:11:00,
2013-03-01 13:21:00,51.0,5.0,30.27,NE,38,9.0,17.0,15,0.00,,,0.00,,2013-03-01 19:21:00,
2013-03-01 13:31:00,51.0,5.0,30.27,NE,38,9.0,17.0,15,0.00,,,0.00,,2013-03-01 19:31:00,
2013-03-01 13:42:00,51.0,5.0,30.27,NE,38,9.0,17.0,15,0.00,,,0.00,,2013-03-01 19:42:00,
2013-03-01 13:52:00,51.0,6.0,30.29,ESE,104,2.0,22.0,16,0.00,,,0.00,,2013-03-01 19:52:00,
2013-03-01 14:01:00,51.0,6.0,30.29,ESE,104,2.0,22.0,16,0.00,,,0.00,,2013-03-01 20:01:00,
2013-03-01 14:11:00,51.0,6.0,30.29,ESE,104,2.0,22.0,16,0.00,,,0.00,,2013-03-01 20:11:00,
2013-03-01 14:21:00,52.0,7.0,30.27,SE,130,5.0,16.0,16,0.00,,,0.00,,2013-03-01 20:21:00,
2013-03-01 14:31:00,52.0,7.0,30.27,SE,130,5.0,16.0,16,0.00,,,0.00,,2013-03-01 20:31:00,
2013-03-01 14:42:00,52.0,7.0,30.27,SE,130,5.0,16.0,16,0.00,,,0.00,,2013-03-01 20:42:00,
2013-03-01 14:52:00,51.0,6.0,30.29,NNW,329,6.0,20.0,16,0.00,,,0.00,,2013-03-01 20:52:00,
2013-03-01 15:01:00,51.0,6.0,30.29,NNW,329,6.0,20.0,16,0.00,,,0.00,,2013-03-01 21:01:00,
2013-03-01 15:11:00,51.0,6.0,30.29,NNW,329,6.0,20.0,16,0.00,,,0.00,,2013-03-01 21:11:00,
2013-03-01 15:21:00,52.0,6.0,30.27,East,97,4.0,14.0,15,0.00,,,0.00,,2013-03-01 21:21:00,
2013-03-01 15:31:00,52.0,6.0,30.27,East,97,4.0,14.0,15,0.00,,,0.00,,2013-03-01 21:31:00,
2013-03-01 15:42:00,52.0,6.0,30.27,East,97,4.0,14.0,15,0.00,,,0.00,,2013-03-01 21:42:00,
2013-03-01 15:52:00,51.0,5.0,30.21,ESE,103,7.0,16.0,15,0.00,,,0.00,,2013-03-01 21:52:00,
2013-03-01 16:01:00,51.0,5.0,30.21,ESE,103,7.0,16.0,15,0.00,,,0.00,,2013-03-01 22:01:00,
2013-03-01 16:11:00,51.0,5.0,30.21,ESE,103,7.0,16.0,15,0.00,,,0.00,,2013-03-01 22:11:00,
2013-03-01 16:21:00,53.0,8.0,30.20,NE,45,3.0,16.0,16,0.00,,,0.00,,2013-03-01 22:21:00,
2013-03-01 16:31:00,53.0,8.0,30.20,NE,45,3.0,16.0,16,0.00,,,0.00,,2013-03-01 22:31:00,
2013-03-01 16:42:00,53.0,8.0,30.20,NE,45,3.0,16.0,16,0.00,,,0.00,,2013-03-01 22:42:00,
2013-03-01 16:52:00,52.0,6.0,30.20,East,97,4.0,10.0,15,0.00,,,0.00,,2013-03-01 22:52:00,
2013-03-01 17:01:00,52.0,6.0,30.20,East,97,4.0,10.0,15,0.00,,,0.00,,2013-03-01 23:01:00,
2013-03-01 17:11:00,52.0,6.0,30.20,East,97,4.0,10.0,15,0.00,,,0.00,,2013-03-01 23:11:00,
2013-03-01 17:21:00,52.0,6.0,30.20,East,88,1.0,10.0,15,0.00,,,0.00,,2013-03-01 23:21:00,
2013-03-01 17:31:00,52.0,6.0,30.20,East,88,1.0,10.0,15,0.00,,,0.00,,2013-03-01 23:31:00,
2013-03-01 17:42:00,52.0,6.0,30.20,East,88,1.0,10.0,15,0.00,,,0.00,,2013-03-01 23:42:00,
2013-03-01 17:52:00,50.0,6.0,30.21,East,80,2.0,8.0,16,0.00,,,0.00,,2013-03-01 23:52:00,
2013-03-01 18:02:00,50.0,6.0,30.21,East,80,2.0,8.0,16,0.00,,,0.00,,2013-03-02 00:02:00,
2013-03-01 18:11:00,50.0,6.0,30.21,East,80,2.0,8.0,16,0.00,,,0.00,,2013-03-02 00:11:00,
2013-03-01 18:22:00,48.0,5.0,30.22,ENE,68,3.0,12.0,17,0.00,,,0.00,,2013-03-02 00:22:00,
2013-03-01 18:32:00,48.0,5.0,30.22,ENE,68,3.0,12.0,17,0.00,,,0.00,,2013-03-02 00:32:00,
2013-03-01 18:42:00,48.0,5.0,30.22,ENE,68,3.0,12.0,17,0.00,,,0.00,,2013-03-02 00:42:00,
2013-03-01 18:52:00,46.0,6.0,30.24,East,83,0.0,6.0,19,0.00,,,0.00,,2013-03-02 00:52:00,
2013-03-01 19:01:00,46.0,6.0,30.24,East,83,0.0,6.0,19,0.00,,,0.00,,2013-03-02 01:01:00,
2013-03-01 19:11:00,46.0,6.0,30.24,East,83,0.0,6.0,19,0.00,,,0.00,,2013-03-02 01:11:00,
2013-03-01 19:21:00,41.0,5.0,30.28,East,83,0.0,2.0,22,0.00,,,0.00,,2013-03-02 01:21:00,
2013-03-01 19:31:00,41.0,5.0,30.28,East,83,0.0,2.0,22,0.00,,,0.00,,2013-03-02 01:31:00,
2013-03-01 19:42:00,41.0,5.0,30.28,East,83,0.0,2.0,22,0.00,,,0.00,,2013-03-02 01:42:00,
2013-03-01 19:52:00,35.0,4.0,30.33,East,83,0.0,3.0,27,0.00,,,0.00,,2013-03-02 01:52:00,
2013-03-01 20:01:00,35.0,4.0,30.33,East,83,0.0,3.0,27,0.00,,,0.00,,2013-03-02 02:01:00,
2013-03-01 20:11:00,35.0,4.0,30.33,East,83,0.0,3.0,27,0.00,,,0.00,,2013-03-02 02:11:00,
2013-03-01 20:22:00,31.0,2.0,30.36,East,83,0.0,3.0,28,0.00,,,0.00,,2013-03-02 02:22:00,
2013-03-01 20:32:00,31.0,2.0,30.36,East,83,0.0,3.0,28,0.00,,,0.00,,2013-03-02 02:32:00,
2013-03-01 20:42:00,31.0,2.0,30.36,East,83,0.0,3.0,28,0.00,,,0.00,,2013-03-02 02:42:00,
2013-03-01 20:52:00,31.0,2.0,30.36,East,83,0.0,3.0,28,0.00,,,0.00,,2013-03-02 02:52:00,
2013-03-01 21:01:00,31.0,2.0,30.36,East,83,0.0,3.0,28,0.00,,,0.00,,2013-03-02 03:01:00,
2013-03-01 21:22:00,27.0,3.0,30.37,East,83,2.0,3.0,35,0.00,,,0.00,,2013-03-02 03:22:00,
2013-03-01 21:32:00,27.0,3.0,30.37,East,83,2.0,3.0,35,0.00,,,0.00,,2013-03-02 03:32:00,
2013-03-01 21:42:00,27.0,3.0,30.37,East,83,2.0,3.0,35,0.00,,,0.00,,2013-03-02 03:42:00,
2013-03-01 21:52:00,26.0,3.0,30.36,East,83,0.0,2.0,36,0.00,,,0.00,,2013-03-02 03:52:00,
2013-03-01 22:01:00,26.0,3.0,30.36,East,83,0.0,2.0,36,0.00,,,0.00,,2013-03-02 04:01:00,
2013-03-01 22:11:00,26.0,3.0,30.36,East,83,0.0,2.0,36,0.00,,,0.00,,2013-03-02 04:11:00,
2013-03-01 22:21:00,26.0,4.0,30.36,East,83,0.0,2.0,38,0.00,,,0.00,,2013-03-02 04:21:00,
2013-03-01 22:32:00,26.0,4.0,30.36,East,83,0.0,2.0,38,0.00,,,0.00,,2013-03-02 04:32:00,
2013-03-01 22:42:00,26.0,4.0,30.36,East,83,0.0,2.0,38,0.00,,,0.00,,2013-03-02 04:42:00,
2013-03-01 22:52:00,24.0,3.0,30.36,East,83,0.0,0.0,40,0.00,,,0.00,,2013-03-02 04:52:00,
2013-03-01 23:01:00,24.0,3.0,30.36,East,83,0.0,0.0,40,0.00,,,0.00,,2013-03-02 05:01:00,
2013-03-01 23:12:00,24.0,3.0,30.36,East,83,0.0,0.0,40,0.00,,,0.00,,2013-03-02 05:12:00,
2013-03-01 23:22:00,23.0,3.0,30.39,East,83,1.0,2.0,41,0.00,,,0.00,,2013-03-02 05:22:00,
2013-03-01 23:32:00,23.0,3.0,30.39,East,83,1.0,2.0,41,0.00,,,0.00,,2013-03-02 05:32:00,
2013-03-01 23:42:00,23.0,3.0,30.39,East,83,1.0,2.0,41,0.00,,,0.00,,2013-03-02 05:42:00,
2013-03-01 23:52:00,23.0,3.0,30.36,East,83,1.0,3.0,42,0.00,,,0.00,,2013-03-02 05:52:00,